Terminal Aerodrome Forecast
Issued by NWS

Home | Current Version | Previous Version | Text Only | Print | Product List | Glossary On
Versions: 1 2 3 4 5 6 7 8 9 10 11 12
488
FTUS45 KABQ 182333
TAFSAF
TAF
KSAF 182333Z 1900/1924 23012KT P6SM BKN100
     FM190300 23011KT P6SM BKN080
     FM190900 21010KT P6SM BKN035
     FM191800 21021G31KT P6SM BKN050=

USA.gov is the U.S. government's official web portal to all federal, state and local government web resources and services.